Terminal Aerodrome Forecast
Issued by NWS

Home | Current Version | Previous Version | Text Only | Print | Product List | Glossary Off
Versions: 1 2 3 4 5 6 7 8 9 10 11 12 13 14 15

000
FTUS42 KMHX 161700
TAFPGV
TAF
KPGV 161721Z 1618/1718 20009KT P6SM SKC
     FM161900 21008KT P6SM VCSH BKN030
     FM170200 27005KT P6SM BKN100
     FM170600 32006KT P6SM SKC
      AMD LTD TO CLD VIS AND WIND=

USA.gov is the U.S. government's official web portal to all federal, state and local government web resources and services.